EW8946 Weather Reports


Display with metric or nautical units.
time (UTC)temp
F
wind
direction
speed
MPH
gust
MPH
rain 1hr
in
rain 24hr
in
rain mn
in
humidity
%
barometer
mb
20181021184608 63 122 1.0 4.0 0.00 0.01 0.01 81 1019.0
20181021183106 63 125 1.0 3.0 0.00 0.01 0.01 79 1019.0
20181021181602 64 136 0.0 2.0 0.00 0.01 0.01 77 1019.0
20181021180103 64 136 0.0 1.0 0.00 0.01 0.01 76 1018.9
20181021174730 65 137 0.0 0.0 0.00 0.01 0.01 74 1018.9
20181021173105 67 137 0.0 0.0 0.00 0.01 0.01 70 1018.7
20181021171600 69 136 0.0 0.0 0.00 0.01 0.01 65 1018.7
20181021164607 72 132 0.0 3.0 0.00 0.01 0.01 60 1018.7
20181021163052 73 142 0.0 3.0 0.00 0.01 0.01 59 1018.8
20181021161623 73 150 0.0 4.0 0.00 0.01 0.01 59 1018.8
20181021160058 74 139 1.0 4.0 0.00 0.01 0.01 58 1019.0
20181021154605 74 139 0.0 3.0 0.00 0.01 0.01 57 1019.2
20181021153123 74 141 0.0 3.0 0.00 0.01 0.01 57 1019.3
20181021151601 74 145 0.0 3.0 0.00 0.01 0.01 56 1019.4
20181021150057 75 146 0.0 2.0 0.00 0.01 0.01 52 1019.6
20181021144550 74 142 1.0 3.0 0.00 0.01 0.01 54 1019.7
20181021143059 74 135 0.0 4.0 0.00 0.01 0.01 54 1019.8
20181021141552 74 134 0.0 3.0 0.00 0.01 0.01 57 1020.0
20181021140031 74 132 1.0 4.0 0.00 0.01 0.01 59 1020.1
20181021134532 74 135 0.0 4.0 0.00 0.01 0.01 60 1020.3
20181021133056 74 163 0.0 2.0 0.00 0.01 0.01 59 1020.5
20181021131519 73 145 0.0 2.0 0.00 0.01 0.01 61 1020.7
20181021130027 73 58 1.0 4.0 0.00 0.01 0.01 62 1020.9
20181021124509 73 159 1.0 3.0 0.00 0.01 0.01 62 1021.1
20181021123006 72 155 0.0 4.0 0.00 0.01 0.01 63 1021.2
20181021121506 71 170 0.0 4.0 0.00 0.01 0.01 67 1021.4
20181021120141 70 135 0.0 4.0 0.00 0.01 0.01 68 1021.6
20181021114703 70 139 1.0 4.0 0.00 0.01 0.01 71 1021.8
20181021113145 69 124 1.0 6.0 0.00 0.01 0.01 68 1022.0
20181021111614 68 131 2.0 4.0 0.00 0.01 0.01 74 1022.3
20181021110117 67 129 2.0 5.0 0.00 0.01 0.01 76 1022.5
20181021104640 67 143 1.0 3.0 0.00 0.01 0.01 78 1022.6
20181021103115 65 138 1.0 5.0 0.00 0.01 0.01 80 1022.8
20181021101609 65 141 1.0 5.0 0.00 0.01 0.01 81 1023.0
20181021100105 64 113 0.0 3.0 0.00 0.01 0.01 82 1023.2
20181021094531 63 139 0.0 6.0 0.00 0.01 0.01 85 1023.4
20181021093110 62 143 0.0 4.0 0.00 0.01 0.01 86 1023.5
20181021091545 61 148 0.0 3.0 0.00 0.01 0.01 87 1023.7
20181021090036 60 156 0.0 3.0 0.00 0.01 0.01 88 1023.8
20181021084542 60 150 0.0 2.0 0.00 0.01 0.01 88 1023.9
20181021083038 60 136 0.0 2.0 0.00 0.01 0.01 88 1023.8
20181021081521 60 134 0.0 1.0 0.00 0.01 0.01 89 1023.8
20181021080033 59 125 0.0 1.0 0.00 0.01 0.01 93 1023.8
20181021074527 56 125 0.0 4.0 0.00 0.01 0.01 94 1023.9
20181021073017 55 134 0.0 0.0 0.00 0.01 0.01 96 1023.8
20181021071515 54 134 0.0 0.0 0.00 0.01 0.01 96 1023.7
20181021070020 52 134 0.0 0.0 0.01 0.01 0.01 95 1023.5
20181021064517 52 134 0.0 0.0 0.01 0.01 0.01 95 1023.5
20181021063024 52 134 0.0 0.0 0.01 0.01 0.01 95 1023.3
20181021061509 52 134 0.0 0.0 0.01 0.01 0.01 95 1023.3
20181021060010 52 134 0.0 1.0 0.00 0.00 0.00 95 1023.3
20181021054508 53 134 0.0 1.0 0.00 0.00 0.00 95 1023.2
20181021053007 53 134 0.0 0.0 0.00 0.00 0.00 94 1023.2
20181021051506 53 134 0.0 0.0 0.00 0.00 0.00 94 1023.2
20181021050007 53 134 0.0 1.0 0.00 0.00 0.00 94 1023.2
20181021044630 54 134 0.0 2.0 0.00 0.00 0.00 94 1023.2
20181021043139 54 134 0.0 1.0 0.00 0.00 0.00 94 1023.1
20181021041657 54 134 0.0 1.0 0.00 0.00 0.00 94 1023.1
20181021040130 54 134 0.0 1.0 0.00 0.00 0.00 94 1023.1
20181021034620 54 134 0.0 3.0 0.00 0.00 0.00 94 1023.0
20181021033125 54 134 0.0 3.0 0.00 0.00 0.00 94 1023.1
20181021031610 55 134 0.0 1.0 0.00 0.00 0.00 94 1023.1
20181021030106 55 134 0.0 1.0 0.00 0.00 0.00 93 1023.1
20181021024648 55 134 0.0 0.0 0.00 0.04 0.00 93 1023.1
20181021023155 55 134 0.0 0.0 0.00 0.04 0.00 93 1023.2
20181021021632 56 134 0.0 0.0 0.00 0.04 0.00 93 1023.2
20181021020215 56 134 0.0 1.0 0.00 0.04 0.00 94 1023.3
20181021014619 56 134 0.0 2.0 0.00 0.04 0.00 94 1023.4
20181021013157 56 134 0.0 1.0 0.00 0.04 0.00 94 1023.4
20181021011642 55 134 0.0 0.0 0.00 0.04 0.00 93 1023.5
20181021010107 56 134 0.0 1.0 0.00 0.04 0.00 93 1023.3
20181021004702 56 134 0.0 1.0 0.00 0.06 0.00 93 1023.2
20181021003110 56 134 0.0 0.0 0.00 0.06 0.00 92 1023.2
20181021001624 57 134 0.0 0.0 0.00 0.06 0.00 91 1023.2
20181021000058 58 134 0.0 0.0 0.00 0.06 0.00 91 1023.1
20181020234551 58 134 0.0 1.0 0.00 0.09 0.00 90 1023.2
20181020233107 58 134 0.0 2.0 0.00 0.09 0.00 91 1023.2
20181020231605 58 132 0.0 4.0 0.00 0.09 0.00 91 1023.1
20181020230035 58 131 0.0 2.0 0.00 0.09 0.00 92 1023.0
20181020224544 58 131 0.0 1.0 0.00 0.09 0.00 92 1023.0
20181020223108 58 131 0.0 0.0 0.00 0.09 0.00 92 1023.1
20181020221543 58 131 0.0 1.0 0.00 0.09 0.00 92 1023.2
20181020220136 58 131 0.0 0.0 0.00 0.00 0.00 92 1023.1
20181020214537 58 131 0.0 0.0 0.00 0.15 0.09 91 1023.2
20181020213032 58 131 0.0 0.0 0.00 0.15 0.09 90 1023.2
20181020211538 59 131 0.0 1.0 0.00 0.15 0.09 90 1023.0
20181020210048 59 131 0.0 1.0 0.00 0.15 0.09 90 1022.9
20181020204554 59 131 0.0 1.0 0.00 0.17 0.09 90 1022.8
20181020203033 59 142 0.0 1.0 0.00 0.17 0.09 89 1022.7
20181020201532 60 157 0.0 0.0 0.00 0.17 0.09 88 1022.6
20181020200052 61 157 0.0 0.0 0.00 0.17 0.09 88 1022.5
20181020194545 61 157 0.0 1.0 0.00 0.21 0.09 87 1022.4
20181020193027 62 156 0.0 0.0 0.00 0.21 0.09 87 1022.4
20181020191524 63 156 0.0 0.0 0.00 0.21 0.09 84 1022.3
20181020190022 64 184 0.0 2.0 0.00 0.21 0.09 83 1022.5